createdAt,value
2019-05-30T00:00:17.581Z,18.45
2019-05-30T00:02:41.480Z,13.62
2019-05-30T00:05:10.487Z,18.07
2019-05-30T00:07:39.122Z,19.35
2019-05-30T00:10:08.781Z,17.10
2019-05-30T00:12:37.383Z,14.38
2019-05-30T00:15:07.786Z,16.07
2019-05-30T00:17:36.724Z,13.85
2019-05-30T00:20:06.592Z,14.47
2019-05-30T00:22:35.234Z,12.47
2019-05-30T00:25:07.148Z,13.53
2019-05-30T00:27:35.826Z,12.43
2019-05-30T00:30:23.064Z,13.60
2019-05-30T00:32:39.078Z,13.62
2019-05-30T00:35:08.622Z,13.83
2019-05-30T00:37:38.719Z,16.57
2019-05-30T00:40:08.444Z,13.48
2019-05-30T00:42:37.020Z,12.30
2019-05-30T00:45:20.396Z,13.10
2019-05-30T00:47:39.212Z,12.85
2019-05-30T00:50:08.958Z,15.85
2019-05-30T00:52:37.426Z,15.05
2019-05-30T00:55:07.753Z,12.60
2019-05-30T00:57:36.556Z,13.15
2019-05-30T01:00:09.914Z,16.27
2019-05-30T01:02:38.442Z,14.25
2019-05-30T01:05:09.891Z,14.45
2019-05-30T01:07:38.491Z,13.32
2019-05-30T01:10:08.619Z,12.03
2019-05-30T01:12:37.228Z,15.48
2019-05-30T01:15:08.472Z,11.03
2019-05-30T01:17:37.070Z,18.70
2019-05-30T01:20:09.731Z,10.90
2019-05-30T01:22:38.331Z,16.42
2019-05-30T01:25:08.112Z,11.15
2019-05-30T01:27:37.274Z,11.63
2019-05-30T01:30:10.033Z,14.03
2019-05-30T01:32:38.594Z,11.53
2019-05-30T01:35:08.319Z,11.57
2019-05-30T01:37:37.489Z,13.45
2019-05-30T01:40:08.955Z,15.78
2019-05-30T01:42:38.419Z,15.38
2019-05-30T01:45:08.989Z,14.55
2019-05-30T01:47:38.094Z,16.10
2019-05-30T01:50:10.581Z,13.98
2019-05-30T01:52:41.044Z,12.28
2019-05-30T01:55:10.669Z,12.85
2019-05-30T01:57:40.770Z,14.05
2019-05-30T02:00:19.906Z,19.17
2019-05-30T02:02:42.112Z,14.87
2019-05-30T02:05:12.720Z,18.82
2019-05-30T02:07:41.403Z,16.60
2019-05-30T02:10:11.746Z,17.15
2019-05-30T02:12:40.359Z,16.48
2019-05-30T02:15:10.150Z,16.10
2019-05-30T02:17:39.164Z,20.12
2019-05-30T02:20:08.580Z,16.37
2019-05-30T02:22:38.422Z,15.55
2019-05-30T02:25:08.370Z,16.07
2019-05-30T02:27:36.883Z,15.63
2019-05-30T02:30:12.444Z,21.17
2019-05-30T02:32:40.637Z,14.45
2019-05-30T02:35:10.926Z,14.10
2019-05-30T02:37:39.517Z,19.20
2019-05-30T02:40:12.264Z,14.60
2019-05-30T02:42:39.187Z,15.20
2019-05-30T02:45:11.943Z,13.83
2019-05-30T02:47:41.001Z,14.53
2019-05-30T02:50:13.309Z,13.78
2019-05-30T02:52:40.888Z,16.15
2019-05-30T02:55:11.416Z,13.25
2019-05-30T02:57:40.072Z,12.50
2019-05-30T03:00:13.897Z,12.95
2019-05-30T03:02:40.109Z,16.77
2019-05-30T03:05:12.111Z,17.85
2019-05-30T03:07:39.497Z,17.02
2019-05-30T03:10:11.848Z,13.85
2019-05-30T03:12:40.112Z,13.98
2019-05-30T03:15:12.497Z,12.40
2019-05-30T03:17:39.845Z,12.58
2019-05-30T03:20:20.339Z,15.08
2019-05-30T03:22:40.738Z,14.98
2019-05-30T03:25:12.467Z,15.30
2019-05-30T03:27:39.994Z,16.00
2019-05-30T03:30:24.928Z,18.00
2019-05-30T03:33:03.963Z,16.05
2019-05-30T03:35:24.347Z,22.95
2019-05-30T03:37:41.865Z,17.30
2019-05-30T03:40:10.675Z,16.67
2019-05-30T03:42:39.306Z,12.70
2019-05-30T03:45:11.928Z,17.90
2019-05-30T03:47:42.612Z,15.65
2019-05-30T03:50:16.604Z,15.38
2019-05-30T03:52:44.229Z,13.40
2019-05-30T03:55:14.941Z,12.18
2019-05-30T03:57:49.529Z,13.80
2019-05-30T04:00:23.900Z,11.45
2019-05-30T04:02:58.736Z,13.00
2019-05-30T04:05:37.749Z,12.15
2019-05-30T04:08:10.067Z,12.20
2019-05-30T04:10:42.155Z,10.28
2019-05-30T04:13:41.059Z,11.88
2019-05-30T04:16:11.044Z,11.28
2019-05-30T04:18:40.188Z,12.85
2019-05-30T04:21:10.851Z,11.15
2019-05-30T04:23:38.957Z,12.53
2019-05-30T04:26:09.259Z,11.43
2019-05-30T04:28:37.752Z,9.93
2019-05-30T04:31:07.991Z,9.25
2019-05-30T04:33:36.853Z,9.35
2019-05-30T04:36:05.722Z,8.73
2019-05-30T04:38:34.263Z,9.68
2019-05-30T04:41:02.833Z,9.05
2019-05-30T04:43:31.428Z,9.70
2019-05-30T04:46:00.026Z,8.08
2019-05-30T04:48:28.561Z,8.40
2019-05-30T04:50:57.052Z,8.68
2019-05-30T04:53:25.716Z,8.13
2019-05-30T04:55:54.197Z,9.38
2019-05-30T04:58:24.398Z,8.13
2019-05-30T05:00:53.171Z,8.43
2019-05-30T05:03:42.926Z,8.75
2019-05-30T05:05:52.203Z,8.78
2019-05-30T05:08:22.100Z,7.72
2019-05-30T05:10:50.982Z,8.88
2019-05-30T05:13:20.447Z,7.65
2019-05-30T05:15:48.891Z,7.67
2019-05-30T05:18:19.215Z,7.72
2019-05-30T05:20:47.947Z,9.78
2019-05-30T05:23:17.267Z,8.93
2019-05-30T05:25:59.901Z,8.13
2019-05-30T05:28:16.234Z,7.90
2019-05-30T05:30:44.891Z,7.83
2019-05-30T05:33:14.572Z,7.50
2019-05-30T05:35:45.184Z,8.03
2019-05-30T05:38:13.713Z,7.65
2019-05-30T05:40:42.642Z,8.48
2019-05-30T05:43:11.466Z,12.88
2019-05-30T05:45:39.990Z,10.28
2019-05-30T05:48:10.029Z,8.30
2019-05-30T05:50:38.629Z,8.45
2019-05-30T05:53:07.240Z,8.80
2019-05-30T05:55:35.841Z,10.05
2019-05-30T05:58:04.482Z,8.08
2019-05-30T06:00:33.120Z,8.45
2019-05-30T06:03:01.695Z,7.62
2019-05-30T06:05:30.542Z,6.70
2019-05-30T06:07:59.191Z,6.70
2019-05-30T06:10:28.507Z,6.58
2019-05-30T06:12:57.232Z,7.87
2019-05-30T06:15:25.761Z,7.85
2019-05-30T06:17:54.360Z,7.90
2019-05-30T06:20:23.360Z,7.10
2019-05-30T06:22:52.108Z,8.13
2019-05-30T06:25:24.050Z,6.85
2019-05-30T06:27:51.141Z,6.67
2019-05-30T06:30:20.545Z,7.17
2019-05-30T06:32:49.175Z,6.30
2019-05-30T06:35:18.771Z,7.70
2019-05-30T06:37:47.694Z,8.23
2019-05-30T06:40:17.292Z,6.40
2019-05-30T06:42:45.929Z,6.35
2019-05-30T06:45:14.608Z,8.30
2019-05-30T06:47:43.214Z,8.40
2019-05-30T06:50:12.242Z,7.22
2019-05-30T06:52:40.837Z,6.65
2019-05-30T06:55:10.008Z,7.87
2019-05-30T06:57:38.607Z,7.55
2019-05-30T07:00:08.605Z,5.72
2019-05-30T07:02:37.287Z,7.45
2019-05-30T07:05:09.146Z,7.28
2019-05-30T07:07:38.457Z,6.80
2019-05-30T07:10:08.233Z,7.58
2019-05-30T07:12:36.836Z,7.85
2019-05-30T07:15:10.586Z,7.45
2019-05-30T07:17:39.251Z,7.87
2019-05-30T07:20:09.208Z,7.78
2019-05-30T07:22:37.737Z,8.55
2019-05-30T07:25:07.443Z,8.78
2019-05-30T07:27:36.125Z,7.25
2019-05-30T07:30:07.563Z,7.55
2019-05-30T07:32:36.187Z,8.40
2019-05-30T07:35:07.653Z,9.75
2019-05-30T07:37:36.426Z,6.67
2019-05-30T07:40:07.248Z,6.53
2019-05-30T07:42:35.897Z,5.87
2019-05-30T07:45:08.811Z,5.62
2019-05-30T07:47:38.542Z,6.83
2019-05-30T07:50:08.088Z,6.20
2019-05-30T07:52:36.681Z,6.12
2019-05-30T07:55:08.222Z,5.17
2019-05-30T07:57:39.723Z,6.60
2019-05-30T08:00:10.308Z,6.60
2019-05-30T08:02:39.158Z,7.10
2019-05-30T08:05:22.776Z,6.35
2019-05-30T08:07:39.079Z,8.20
2019-05-30T08:10:09.490Z,6.45
2019-05-30T08:12:38.472Z,7.10
2019-05-30T08:15:09.455Z,10.45
2019-05-30T08:17:38.091Z,7.90
2019-05-30T08:20:08.563Z,8.38
2019-05-30T08:22:38.328Z,8.38
2019-05-30T08:25:08.719Z,8.45
2019-05-30T08:27:38.640Z,8.55
2019-05-30T08:30:10.484Z,8.23
2019-05-30T08:32:39.330Z,7.20
2019-05-30T08:35:08.323Z,7.20
2019-05-30T08:37:37.333Z,9.53
2019-05-30T08:40:07.832Z,7.83
2019-05-30T08:42:38.188Z,7.62
2019-05-30T08:45:09.969Z,8.40
2019-05-30T08:47:38.307Z,8.68
2019-05-30T08:50:10.971Z,7.53
2019-05-30T08:52:40.893Z,7.42
2019-05-30T08:55:11.913Z,7.53
2019-05-30T08:57:41.122Z,7.40
2019-05-30T09:00:12.442Z,7.60
2019-05-30T09:02:41.118Z,7.62
2019-05-30T09:05:10.722Z,11.18
2019-05-30T09:07:40.258Z,8.18
2019-05-30T09:10:10.851Z,7.65
2019-05-30T09:12:42.080Z,7.40
2019-05-30T09:15:11.862Z,8.83
2019-05-30T09:17:42.493Z,7.12
2019-05-30T09:20:12.553Z,8.18
2019-05-30T09:22:41.819Z,8.45
2019-05-30T09:25:12.483Z,7.90
2019-05-30T09:27:42.638Z,7.90
2019-05-30T09:30:14.160Z,7.67
2019-05-30T09:32:43.424Z,6.67
2019-05-30T09:35:13.373Z,8.05
2019-05-30T09:37:43.812Z,7.40
2019-05-30T09:40:13.153Z,6.17
2019-05-30T09:42:44.210Z,9.63
2019-05-30T09:45:14.335Z,6.12
2019-05-30T09:47:44.846Z,10.13
2019-05-30T09:50:13.957Z,6.55
2019-05-30T09:52:43.565Z,6.45
2019-05-30T09:55:13.595Z,6.92
2019-05-30T09:57:44.156Z,6.60
2019-05-30T10:00:21.331Z,6.65
2019-05-30T10:02:50.494Z,7.10
2019-05-30T10:05:24.358Z,6.90
2019-05-30T10:07:52.837Z,7.37
2019-05-30T10:10:22.775Z,5.90
2019-05-30T10:12:52.698Z,7.03
2019-05-30T10:15:22.655Z,6.20
2019-05-30T10:17:53.835Z,5.85
2019-05-30T10:20:22.738Z,7.90
2019-05-30T10:22:52.435Z,7.20
2019-05-30T10:25:21.781Z,6.62
2019-05-30T10:27:52.377Z,6.30
2019-05-30T10:30:20.930Z,6.42
2019-05-30T10:32:50.276Z,5.55
2019-05-30T10:35:19.957Z,6.55
2019-05-30T10:37:49.096Z,6.17
2019-05-30T10:40:19.570Z,5.40
2019-05-30T10:42:49.600Z,6.60
2019-05-30T10:45:19.486Z,6.58
2019-05-30T10:47:49.311Z,6.40
2019-05-30T10:50:19.549Z,6.60
2019-05-30T10:52:49.305Z,6.45
2019-05-30T10:55:19.406Z,6.75
2019-05-30T10:57:48.653Z,10.38
2019-05-30T11:00:20.105Z,7.25
2019-05-30T11:02:49.459Z,7.00
2019-05-30T11:05:19.712Z,7.53
2019-05-30T11:08:02.111Z,8.05
2019-05-30T11:10:30.031Z,6.45
2019-05-30T11:13:05.678Z,5.70
2019-05-30T11:15:28.861Z,6.97
2019-05-30T11:17:57.734Z,6.60
2019-05-30T11:20:26.508Z,7.15
2019-05-30T11:22:56.345Z,5.70
2019-05-30T11:25:25.405Z,14.78
2019-05-30T11:27:54.861Z,6.12
2019-05-30T11:30:23.707Z,5.62
2019-05-30T11:32:53.071Z,6.20
2019-05-30T11:35:21.931Z,6.53
2019-05-30T11:37:51.034Z,6.30
2019-05-30T11:40:19.921Z,5.55
2019-05-30T11:42:49.292Z,6.10
2019-05-30T11:45:18.547Z,7.03
2019-05-30T11:47:47.169Z,6.30
2019-05-30T11:50:18.091Z,5.92
2019-05-30T11:52:46.684Z,5.40
2019-05-30T11:55:16.090Z,6.67
2019-05-30T11:57:44.654Z,5.90
2019-05-30T12:00:14.799Z,4.97
2019-05-30T12:02:43.399Z,7.03
2019-05-30T12:05:13.893Z,7.00
2019-05-30T12:07:42.499Z,6.62
2019-05-30T12:10:13.112Z,5.83
2019-05-30T12:12:41.713Z,6.20
2019-05-30T12:15:11.457Z,6.50
2019-05-30T12:17:40.071Z,5.40
2019-05-30T12:20:09.431Z,6.20
2019-05-30T12:22:37.967Z,6.08
2019-05-30T12:25:09.812Z,6.12
2019-05-30T12:27:38.442Z,6.90
2019-05-30T12:30:08.740Z,6.65
2019-05-30T12:32:37.314Z,5.53
2019-05-30T12:35:07.612Z,4.50
2019-05-30T12:37:52.957Z,6.10
2019-05-30T12:40:09.217Z,6.15
2019-05-30T12:42:38.076Z,6.50
2019-05-30T12:45:08.513Z,6.10
2019-05-30T12:47:37.128Z,4.92
2019-05-30T12:50:09.202Z,4.33
2019-05-30T12:52:37.877Z,5.30
2019-05-30T12:55:08.471Z,5.20
2019-05-30T12:57:37.268Z,5.15
2019-05-30T13:00:17.433Z,5.62
2019-05-30T13:02:41.843Z,5.35
2019-05-30T13:05:11.525Z,4.22
2019-05-30T13:07:40.192Z,4.80
2019-05-30T13:10:09.182Z,4.80
2019-05-30T13:12:37.856Z,5.17
2019-05-30T13:15:07.788Z,4.83
2019-05-30T13:17:36.791Z,5.40
2019-05-30T13:20:10.715Z,4.47
2019-05-30T13:22:39.592Z,5.95
2019-05-30T13:25:10.485Z,4.90
2019-05-30T13:27:39.369Z,5.80
2019-05-30T13:30:09.338Z,4.47
2019-05-30T13:32:38.007Z,4.65
2019-05-30T13:35:07.755Z,5.35
2019-05-30T13:37:36.394Z,6.42
2019-05-30T13:40:23.572Z,4.67
2019-05-30T13:42:37.378Z,5.92
2019-05-30T13:45:08.317Z,6.87
2019-05-30T13:47:38.107Z,7.95
2019-05-30T13:50:12.780Z,6.58
2019-05-30T13:52:38.332Z,6.25
2019-05-30T13:55:08.887Z,6.67
2019-05-30T13:57:38.777Z,7.30
2019-05-30T14:00:10.653Z,6.70
2019-05-30T14:02:39.407Z,6.67
2019-05-30T14:05:10.549Z,6.87
2019-05-30T14:07:39.443Z,6.47
2019-05-30T14:10:10.707Z,6.78
2019-05-30T14:12:39.813Z,6.30
2019-05-30T14:15:14.412Z,5.90
2019-05-30T14:17:43.475Z,6.33
2019-05-30T14:20:14.124Z,5.67
2019-05-30T14:22:43.041Z,7.35
2019-05-30T14:25:13.830Z,5.72
2019-05-30T14:27:42.289Z,4.60
2019-05-30T14:30:13.091Z,7.55
2019-05-30T14:32:41.856Z,9.00
2019-05-30T14:35:13.299Z,4.60
2019-05-30T14:37:41.510Z,5.47
2019-05-30T14:40:13.059Z,4.00
2019-05-30T14:42:41.856Z,6.12
2019-05-30T14:45:12.571Z,6.25
2019-05-30T14:47:41.295Z,5.00
2019-05-30T14:50:13.050Z,4.50
2019-05-30T14:52:41.896Z,4.33
2019-05-30T14:55:11.324Z,4.92
2019-05-30T14:57:39.947Z,5.58
2019-05-30T15:00:14.774Z,6.70
2019-05-30T15:02:44.116Z,4.67
2019-05-30T15:05:15.739Z,4.80
2019-05-30T15:07:46.780Z,4.62
2019-05-30T15:10:17.297Z,5.97
2019-05-30T15:12:46.071Z,7.00
2019-05-30T15:15:18.389Z,5.60
2019-05-30T15:17:46.366Z,5.95
2019-05-30T15:20:16.010Z,5.42
2019-05-30T15:22:44.539Z,6.47
2019-05-30T15:25:16.449Z,6.03
2019-05-30T15:27:44.383Z,7.30
2019-05-30T15:30:14.750Z,7.42
2019-05-30T15:32:43.520Z,5.92
2019-05-30T15:35:12.927Z,5.62
2019-05-30T15:37:44.252Z,7.12
2019-05-30T15:40:13.302Z,6.97
2019-05-30T15:42:42.201Z,5.95
2019-05-30T15:45:12.066Z,7.62
2019-05-30T15:47:40.941Z,7.85
2019-05-30T15:50:11.196Z,7.12
2019-05-30T15:52:40.296Z,6.28
2019-05-30T15:55:13.110Z,6.83
2019-05-30T15:57:42.219Z,6.08
2019-05-30T16:00:16.119Z,5.12
2019-05-30T16:02:44.657Z,6.70
2019-05-30T16:05:14.766Z,6.62
2019-05-30T16:07:43.354Z,6.60
2019-05-30T16:10:12.882Z,7.08
2019-05-30T16:12:41.639Z,5.97
2019-05-30T16:15:11.707Z,5.30
2019-05-30T16:17:40.455Z,6.60
2019-05-30T16:20:09.562Z,6.55
2019-05-30T16:22:38.185Z,6.53
2019-05-30T16:25:08.084Z,6.22
2019-05-30T16:27:36.648Z,5.90
2019-05-30T16:30:08.435Z,4.47
2019-05-30T16:32:37.539Z,5.28
2019-05-30T16:35:08.038Z,7.37
2019-05-30T16:37:36.644Z,7.70
2019-05-30T16:40:09.769Z,7.20
2019-05-30T16:42:38.295Z,6.53
2019-05-30T16:45:11.238Z,5.90
2019-05-30T16:47:40.040Z,6.60
2019-05-30T16:50:10.076Z,6.95
2019-05-30T16:52:38.604Z,7.50
2019-05-30T16:55:08.348Z,7.62
2019-05-30T16:57:36.956Z,6.58
2019-05-30T17:00:10.496Z,4.97
2019-05-30T17:02:39.110Z,7.33
2019-05-30T17:05:08.002Z,6.90
2019-05-30T17:07:36.651Z,7.33
2019-05-30T17:10:22.051Z,6.87
2019-05-30T17:12:39.275Z,6.58
2019-05-30T17:15:09.745Z,6.78
2019-05-30T17:17:38.355Z,9.28
2019-05-30T17:20:11.777Z,7.75
2019-05-30T17:22:40.370Z,7.25
2019-05-30T17:25:09.774Z,6.70
2019-05-30T17:27:38.469Z,6.67
2019-05-30T17:30:07.572Z,5.62
2019-05-30T17:32:36.170Z,5.78
2019-05-30T17:35:08.001Z,6.80
2019-05-30T17:37:36.588Z,9.00
2019-05-30T17:40:10.732Z,7.37
2019-05-30T17:42:39.073Z,6.70
2019-05-30T17:45:09.699Z,6.80
2019-05-30T17:47:38.601Z,7.50
2019-05-30T17:50:09.916Z,7.05
2019-05-30T17:52:38.446Z,5.03
2019-05-30T17:55:07.745Z,6.10
2019-05-30T17:57:36.358Z,7.65
2019-05-30T18:00:11.274Z,7.80
2019-05-30T18:02:40.630Z,7.78
2019-05-30T18:05:10.135Z,7.65
2019-05-30T18:07:39.600Z,6.60
2019-05-30T18:10:09.110Z,7.25
2019-05-30T18:12:37.700Z,7.33
2019-05-30T18:15:15.148Z,6.85
2019-05-30T18:17:44.079Z,5.30
2019-05-30T18:20:12.985Z,6.80
2019-05-30T18:22:41.687Z,5.92
2019-05-30T18:25:12.290Z,8.28
2019-05-30T18:27:40.979Z,6.97
2019-05-30T18:30:11.574Z,8.35
2019-05-30T18:32:40.111Z,6.03
2019-05-30T18:35:09.062Z,6.47
2019-05-30T18:37:39.501Z,5.87
2019-05-30T18:40:08.760Z,6.53
2019-05-30T18:42:37.765Z,7.00
2019-05-30T18:45:11.358Z,7.10
2019-05-30T18:47:39.993Z,7.17
2019-05-30T18:50:09.882Z,6.85
2019-05-30T18:52:38.529Z,8.03
2019-05-30T18:55:08.675Z,10.98
2019-05-30T18:57:37.489Z,8.23
2019-05-30T19:00:13.301Z,6.00
2019-05-30T19:02:40.946Z,7.80
2019-05-30T19:05:09.949Z,8.48
2019-05-30T19:07:38.489Z,8.30
2019-05-30T19:10:07.676Z,8.00
2019-05-30T19:12:36.633Z,7.67
2019-05-30T19:15:07.473Z,7.92
2019-05-30T19:17:36.123Z,8.13
2019-05-30T19:20:06.758Z,5.28
2019-05-30T19:22:36.417Z,5.62
2019-05-30T19:25:08.275Z,7.58
2019-05-30T19:27:38.527Z,6.70
2019-05-30T19:30:09.386Z,6.28
2019-05-30T19:32:38.170Z,8.08
2019-05-30T19:35:11.819Z,7.37
2019-05-30T19:37:40.358Z,6.08
2019-05-30T19:40:09.662Z,5.40
2019-05-30T19:42:38.992Z,5.97
2019-05-30T19:45:09.216Z,6.42
2019-05-30T19:47:38.788Z,5.60
2019-05-30T19:50:09.382Z,6.75
2019-05-30T19:52:39.083Z,5.95
2019-05-30T19:55:09.556Z,6.03
2019-05-30T19:57:39.764Z,8.33
2019-05-30T20:00:10.577Z,5.90
2019-05-30T20:02:40.492Z,4.70
2019-05-30T20:05:09.693Z,10.75
2019-05-30T20:07:38.936Z,7.83
2019-05-30T20:10:08.941Z,5.60
2019-05-30T20:12:38.944Z,5.22
2019-05-30T20:15:10.050Z,5.40
2019-05-30T20:17:39.717Z,6.20
2019-05-30T20:20:09.201Z,7.65
2019-05-30T20:22:38.265Z,5.58
2019-05-30T20:25:08.409Z,5.60
2019-05-30T20:27:37.043Z,5.30
2019-05-30T20:30:12.508Z,4.60
2019-05-30T20:32:41.200Z,4.10
2019-05-30T20:35:10.582Z,3.62
2019-05-30T20:37:39.240Z,4.95
2019-05-30T20:40:09.915Z,5.37
2019-05-30T20:42:39.033Z,5.30
2019-05-30T20:45:10.110Z,5.12
2019-05-30T20:47:40.695Z,3.45
2019-05-30T20:50:10.918Z,4.25
2019-05-30T20:52:42.240Z,5.95
2019-05-30T20:55:10.416Z,4.37
2019-05-30T20:57:38.950Z,3.65
2019-05-30T21:00:09.425Z,3.60
2019-05-30T21:02:38.978Z,4.67
2019-05-30T21:05:08.886Z,4.90
2019-05-30T21:07:37.857Z,4.90
2019-05-30T21:10:07.817Z,3.80
2019-05-30T21:12:41.386Z,4.50
2019-05-30T21:15:08.556Z,4.80
2019-05-30T21:17:37.757Z,4.85
2019-05-30T21:20:11.527Z,4.25
2019-05-30T21:22:40.117Z,4.67
2019-05-30T21:25:10.343Z,5.05
2019-05-30T21:27:39.179Z,3.70
2019-05-30T21:30:28.829Z,4.05
2019-05-30T21:32:57.548Z,4.35
2019-05-30T21:35:26.465Z,5.00
2019-05-30T21:37:55.525Z,4.80
2019-05-30T21:40:24.144Z,4.42
2019-05-30T21:43:04.845Z,5.37
2019-05-30T21:45:23.394Z,4.83
2019-05-30T21:47:51.930Z,4.90
2019-05-30T21:50:20.641Z,5.40
2019-05-30T21:52:49.774Z,4.42
2019-05-30T21:55:18.785Z,4.87
2019-05-30T21:57:48.154Z,4.80
2019-05-30T22:00:20.988Z,3.98
2019-05-30T22:02:55.768Z,3.37
2019-05-30T22:05:24.854Z,4.12
2019-05-30T22:07:53.370Z,3.75
2019-05-30T22:10:21.951Z,4.75
2019-05-30T22:12:51.829Z,3.92
2019-05-30T22:15:20.863Z,4.37
2019-05-30T22:17:49.927Z,3.45
2019-05-30T22:20:19.075Z,4.10
2019-05-30T22:22:48.178Z,4.10
2019-05-30T22:25:18.595Z,3.55
2019-05-30T22:27:48.418Z,4.58
2019-05-30T22:30:18.481Z,4.50
2019-05-30T22:32:48.705Z,4.40
2019-05-30T22:35:17.379Z,3.80
2019-05-30T22:37:46.790Z,4.40
2019-05-30T22:40:15.818Z,5.30
2019-05-30T22:42:44.348Z,4.67
2019-05-30T22:45:13.242Z,4.60
2019-05-30T22:47:41.951Z,4.55
2019-05-30T22:50:10.656Z,4.75
2019-05-30T22:52:39.259Z,4.20
2019-05-30T22:55:07.875Z,4.95
2019-05-30T22:57:36.407Z,4.50
2019-05-30T23:00:06.702Z,3.87
2019-05-30T23:02:35.251Z,4.58
2019-05-30T23:05:06.226Z,4.70
2019-05-30T23:07:34.948Z,3.92
2019-05-30T23:10:05.030Z,5.00
2019-05-30T23:12:33.568Z,4.70
2019-05-30T23:15:02.148Z,3.77
2019-05-30T23:17:30.705Z,3.27
2019-05-30T23:19:59.581Z,3.42
2019-05-30T23:22:28.105Z,3.92
2019-05-30T23:24:57.510Z,5.03
2019-05-30T23:27:26.359Z,5.42
2019-05-30T23:29:55.927Z,4.83
2019-05-30T23:32:24.809Z,4.45
2019-05-30T23:34:54.581Z,3.40
2019-05-30T23:37:24.408Z,3.25
2019-05-30T23:39:52.921Z,3.40
2019-05-30T23:42:21.458Z,4.33
2019-05-30T23:44:51.198Z,4.95
2019-05-30T23:47:20.012Z,4.55
2019-05-30T23:49:49.882Z,4.10
2019-05-30T23:52:18.712Z,5.95
2019-05-30T23:54:47.345Z,6.85
2019-05-30T23:57:18.462Z,5.20
2019-05-30T23:59:47.002Z,4.72
